Hancock, Michigan
Current Conditions -  °F | °C
As of 6:33 AM on Friday 31 Oct 2014 (Local Time) from KCMX Reporting Station
Light Snow Light Snow  
Wind Chill: 16°   Ceiling: 2800
Heat Index: 29°   Visibility: 2.5mi
Dew Point: 23°   Wind: 18mph
Humidity: 78%   Direction: 10°N
Pressure: 30.32"   Gusts: 29mph
Location:  47.13°N, 88.58°W
Report Text: KCMX 311033Z AUTO 01016G25KT 2 1/2SM -SN BKN028 BKN039 M02/M05 A3032 RMK AO2 VIS 1 1/2V5 P0000 T10171050
Loading
Personal Weather Stations






























Interactive Weather Map
Tropical Storm Tracking
New forecast layout! Learn more

10-Day Weather Forecast

Advertisements
Track Severe Weather on mobile